Flight Track Log - Related Links

Times and Time Zones

All times are in EDT time to prevent confusion due to time zone crossing. See the TTE560 flight status page for this flight to view local times or setup timezone preferences in your user account.

Time Position Orientation Groundspeed Altitude Reporting Facility
EDT Latitude Longitude Course Direction KTS MPH feet Rate Location/Type
Sun 01:46:11 PM 47.6928 -116.8189 166° South 196 226 8,500  Level Seattle Center
Sun 01:47:12 PM 47.6414 -116.7625 144° Southeast 230 265 10,600 2,016 Climbing Seattle Center
Sun 01:48:13 PM 47.5772 -116.6933 144° Southeast 281 323 12,600 2,164 Climbing Seattle Center
Sun 01:49:14 PM 47.5103 -116.6200 143° Southeast 296 341 15,000 1,623 Climbing Seattle Center
Sun 01:50:15 PM 47.4392 -116.5447 144° Southeast 312 359 15,900 443 Climbing Seattle Center
Sun 01:51:16 PM 47.3636 -116.4600 143° Southeast 337 388 15,900 295 Level Seattle Center
Sun 01:52:17 PM 47.2869 -116.3828 146° Southeast 335 386 16,500 1,574 Climbing Seattle Center
Sun 01:53:18 PM 47.2139 -116.3003 142° Southeast 331 381 19,100 2,459 Climbing Seattle Center
Sun 01:54:19 PM 47.1381 -116.2231 145° Southeast 334 384 21,500 2,213 Climbing Seattle Center
Sun 01:55:20 PM 47.0631 -116.1397 143° Southeast 337 388 23,600 2,016 Climbing Seattle Center
Sun 01:56:21 PM 46.9842 -116.0586 145° Southeast 345 397 25,600 1,967 Climbing Seattle Center
Sun 01:57:22 PM 46.9044 -115.9733 144° Southeast 356 410 27,600 1,967 Climbing Seattle Center
Sun 01:58:23 PM 46.8231 -115.8900 145° Southeast 357 411 29,600 1,839 Climbing Seattle Center
Sun 01:59:26 PM 46.7228 -115.7864 145° Southeast 370 426 31,400 1,548 Climbing Seattle Center
Sun 02:00:27 PM 46.6375 -115.6961 144° Southeast 378 435 32,800 1,426 Climbing Seattle Center
Sun 02:01:28 PM 46.5519 -115.6069 144° Southeast 380 437 34,300 1,082 Climbing Seattle Center
Sun 02:02:29 PM 46.4656 -115.5161 144° Southeast 382 440 35,000 344 Climbing Seattle Center
Sun 02:03:30 PM 46.3706 -115.4225 146° Southeast 405 466 35,000  Level Seattle Center
Sun 02:04:31 PM 46.2728 -115.3211 144° Southeast 428 493 35,000  Level Seattle Center
Sun 02:05:32 PM 46.1733 -115.2203 145° Southeast 435 501 35,000  Level Seattle Center
Sun 02:06:33 PM 46.0722 -115.1175 145° Southeast 442 509 35,000  Level Seattle Center
Sun 02:07:34 PM 45.9711 -115.0150 145° Southeast 445 512 35,000  Level Seattle Center
Sun 02:08:35 PM 45.8603 -114.9083 146° Southeast 446 513 35,000  Level Seattle Center
Sun 02:09:36 PM 45.7583 -114.8033 144° Southeast 449 517 35,000  Level Seattle Center
Sun 02:10:37 PM 45.6442 -114.6911 145° Southeast 447 514 35,000  Level Seattle Center
Sun 02:11:38 PM 45.5519 -114.6019 146° Southeast 452 520 35,000  Level Seattle Center
Sun 02:12:39 PM 45.4483 -114.4986 145° Southeast 454 522 35,000  Level Seattle Center
Sun 02:13:40 PM 45.3428 -114.3969 146° Southeast 457 526 35,000  Level Seattle Center
Sun 02:14:10 PM 45.2819 -114.3364 145° Southeast 455 524 35,000  Level Salt Lake Center
Sun 02:15:12 PM 45.1769 -114.2350 146° Southeast 455 524 35,000 -706 Level Salt Lake Center
Sun 02:16:43 PM 45.0103 -114.0739 146° Southeast 451 519 33,200 -1,258 Descending Seattle Center
Sun 02:17:16 PM 44.9664 -114.0372 149° Southeast 455 524 32,400 -1,389 Descending Salt Lake Center
Sun 02:18:18 PM 44.8356 -113.9511 155° Southeast 448 516 31,000 -677 Descending Salt Lake Center
Sun 02:19:20 PM 44.7331 -113.8722 151° Southeast 442 509 31,000  Level Salt Lake Center
Sun 02:20:22 PM 44.6142 -113.7883 153° Southeast 434 499 31,000 -161 Level Salt Lake Center
Sun 02:22:26 PM 44.3908 -113.6281 153° Southeast 434 499 30,500 -774 Descending Salt Lake Center
Sun 02:23:28 PM 44.2914 -113.5544 152° Southeast 427 491 28,600 -1,935 Descending Salt Lake Center
Sun 02:24:30 PM 44.1783 -113.4750 153° Southeast 415 478 26,500 -1,645 Descending Salt Lake Center
Sun 02:25:32 PM 44.0900 -113.4136 153° Southeast 389 448 25,200 -1,355 Descending Salt Lake Center
Sun 02:26:34 PM 44.0028 -113.3503 152° Southeast 338 389 23,700 -1,355 Descending Salt Lake Center
Sun 02:27:36 PM 43.9267 -113.2967 153° Southeast 325 374 22,400 -1,403 Descending Salt Lake Center
Sun 02:28:38 PM 43.8300 -113.2264 152° Southeast 339 390 20,800 -1,355 Descending Salt Lake Center
Sun 02:29:40 PM 43.7353 -113.1639 155° Southeast 373 429 19,600 -871 Descending Salt Lake Center
Sun 02:30:42 PM 43.6497 -113.1000 152° Southeast 371 427 19,000 -532 Descending Salt Lake Center
Sun 02:31:44 PM 43.5531 -113.0358 154° Southeast 353 406 18,500 -1,161 Descending Salt Lake Center
Sun 02:32:46 PM 43.4739 -112.9786 152° Southeast 341 392 16,600 -1,935 Descending Salt Lake Center
Sun 02:33:48 PM 43.3806 -112.9169 154° Southeast 335 386 14,500 -1,887 Descending Salt Lake Center
Sun 02:34:50 PM 43.3056 -112.8633 153° Southeast 328 377 12,700 -1,872 Descending Salt Lake Center
Sun 02:35:53 PM 43.2197 -112.8067 154° Southeast 318 366 10,600 -1,296 Descending Salt Lake Center
Sun 02:36:55 PM 43.1486 -112.7547 152° Southeast 311 358 10,000 -1,306 Descending Salt Lake Center
Sun 02:37:57 PM 43.0844 -112.6936 145° Southeast 290 334 7,900 -1,258 Descending Salt Lake Center
Sun 02:38:59 PM 43.0353 -112.6417 142° Southeast 256 295 7,400 -774 Descending Salt Lake Center
Sun 02:40:01 PM 42.9906 -112.5875 138° Southeast 217 250 6,300 -871 Descending Salt Lake Center
Sun 02:41:03 PM 42.9536 -112.5425 138° Southeast 202 232 5,600 -532 Descending Salt Lake Center
Sun 02:42:05 PM 42.9047 -112.5456 183° South 193 222 5,200 -387 Descending Salt Lake Center

Login

Don't have an account? Register now (free) for customized features, flight alerts, and more!